sensor_id;sensor_type;location;lat;lon;timestamp;P1;durP1;ratioP1;P2;durP2;ratioP2
7051;SDS011;3567;52.444;13.556;2023-11-19T00:00:29;5.32;;;4.82;;
7051;SDS011;3567;52.444;13.556;2023-11-19T00:02:55;8.40;;;5.30;;
7051;SDS011;3567;52.444;13.556;2023-11-19T00:05:20;8.07;;;4.88;;
7051;SDS011;3567;52.444;13.556;2023-11-19T00:07:45;5.72;;;4.70;;
7051;SDS011;3567;52.444;13.556;2023-11-19T00:10:12;6.20;;;5.60;;
7051;SDS011;3567;52.444;13.556;2023-11-19T00:12:44;5.57;;;5.05;;
7051;SDS011;3567;52.444;13.556;2023-11-19T00:15:12;5.82;;;5.22;;
7051;SDS011;3567;52.444;13.556;2023-11-19T00:17:39;6.15;;;5.25;;
7051;SDS011;3567;52.444;13.556;2023-11-19T00:20:13;5.35;;;4.82;;
7051;SDS011;3567;52.444;13.556;2023-11-19T00:22:39;6.78;;;5.40;;
7051;SDS011;3567;52.444;13.556;2023-11-19T00:25:06;5.03;;;4.53;;
7051;SDS011;3567;52.444;13.556;2023-11-19T00:27:32;7.40;;;5.22;;
7051;SDS011;3567;52.444;13.556;2023-11-19T00:29:58;5.65;;;4.82;;
7051;SDS011;3567;52.444;13.556;2023-11-19T00:32:23;5.65;;;5.05;;
7051;SDS011;3567;52.444;13.556;2023-11-19T00:34:48;5.40;;;4.88;;
7051;SDS011;3567;52.444;13.556;2023-11-19T00:37:14;8.20;;;4.40;;
7051;SDS011;3567;52.444;13.556;2023-11-19T00:39:43;8.82;;;5.28;;
7051;SDS011;3567;52.444;13.556;2023-11-19T00:42:08;5.15;;;4.65;;
7051;SDS011;3567;52.444;13.556;2023-11-19T00:44:35;5.40;;;4.90;;
7051;SDS011;3567;52.444;13.556;2023-11-19T00:47:01;5.40;;;4.60;;
7051;SDS011;3567;52.444;13.556;2023-11-19T00:49:26;5.07;;;4.57;;
7051;SDS011;3567;52.444;13.556;2023-11-19T00:51:51;5.10;;;4.68;;
7051;SDS011;3567;52.444;13.556;2023-11-19T00:54:17;6.15;;;4.63;;
7051;SDS011;3567;52.444;13.556;2023-11-19T00:56:42;5.97;;;4.95;;
7051;SDS011;3567;52.444;13.556;2023-11-19T00:59:08;5.28;;;4.78;;
7051;SDS011;3567;52.444;13.556;2023-11-19T01:01:33;4.95;;;4.55;;
7051;SDS011;3567;52.444;13.556;2023-11-19T01:03:59;6.57;;;4.78;;
7051;SDS011;3567;52.444;13.556;2023-11-19T01:06:30;6.93;;;5.15;;
7051;SDS011;3567;52.444;13.556;2023-11-19T01:08:56;5.15;;;4.68;;
7051;SDS011;3567;52.444;13.556;2023-11-19T01:11:22;8.68;;;4.45;;
7051;SDS011;3567;52.444;13.556;2023-11-19T01:13:49;5.07;;;4.57;;
7051;SDS011;3567;52.444;13.556;2023-11-19T01:16:14;9.10;;;4.88;;
7051;SDS011;3567;52.444;13.556;2023-11-19T01:18:40;5.50;;;5.00;;
7051;SDS011;3567;52.444;13.556;2023-11-19T01:21:05;5.53;;;4.72;;
7051;SDS011;3567;52.444;13.556;2023-11-19T01:23:31;5.82;;;4.63;;
7051;SDS011;3567;52.444;13.556;2023-11-19T01:25:57;5.88;;;4.68;;
7051;SDS011;3567;52.444;13.556;2023-11-19T01:28:23;5.43;;;4.38;;
7051;SDS011;3567;52.444;13.556;2023-11-19T01:30:50;5.10;;;4.32;;
7051;SDS011;3567;52.444;13.556;2023-11-19T01:33:16;8.32;;;5.03;;
7051;SDS011;3567;52.444;13.556;2023-11-19T01:35:41;5.80;;;4.75;;
7051;SDS011;3567;52.444;13.556;2023-11-19T01:38:06;7.65;;;4.97;;
7051;SDS011;3567;52.444;13.556;2023-11-19T01:40:33;4.53;;;4.10;;
7051;SDS011;3567;52.444;13.556;2023-11-19T01:42:59;4.35;;;3.95;;
7051;SDS011;3567;52.444;13.556;2023-11-19T01:45:28;4.38;;;3.78;;
7051;SDS011;3567;52.444;13.556;2023-11-19T01:47:55;6.30;;;4.18;;
7051;SDS011;3567;52.444;13.556;2023-11-19T01:50:21;5.47;;;3.97;;
7051;SDS011;3567;52.444;13.556;2023-11-19T01:52:49;4.85;;;4.45;;
7051;SDS011;3567;52.444;13.556;2023-11-19T01:55:17;5.25;;;4.35;;
7051;SDS011;3567;52.444;13.556;2023-11-19T01:57:44;4.75;;;4.35;;
7051;SDS011;3567;52.444;13.556;2023-11-19T02:00:09;4.88;;;4.30;;
7051;SDS011;3567;52.444;13.556;2023-11-19T02:02:36;5.03;;;4.20;;
7051;SDS011;3567;52.444;13.556;2023-11-19T02:05:02;5.13;;;4.18;;
7051;SDS011;3567;52.444;13.556;2023-11-19T02:07:28;4.75;;;4.28;;
7051;SDS011;3567;52.444;13.556;2023-11-19T02:09:54;5.40;;;4.38;;
7051;SDS011;3567;52.444;13.556;2023-11-19T02:12:19;4.68;;;3.80;;
7051;SDS011;3567;52.444;13.556;2023-11-19T02:14:45;5.13;;;4.43;;
7051;SDS011;3567;52.444;13.556;2023-11-19T02:17:26;6.60;;;4.53;;
7051;SDS011;3567;52.444;13.556;2023-11-19T02:19:59;10.25;;;5.15;;
7051;SDS011;3567;52.444;13.556;2023-11-19T02:22:25;6.80;;;5.80;;
7051;SDS011;3567;52.444;13.556;2023-11-19T02:24:51;6.63;;;4.50;;
7051;SDS011;3567;52.444;13.556;2023-11-19T02:30:16;5.05;;;4.63;;
7051;SDS011;3567;52.444;13.556;2023-11-19T02:32:42;5.95;;;4.97;;
7051;SDS011;3567;52.444;13.556;2023-11-19T02:35:07;5.88;;;4.63;;
7051;SDS011;3567;52.444;13.556;2023-11-19T02:37:34;5.00;;;4.57;;
7051;SDS011;3567;52.444;13.556;2023-11-19T02:39:59;4.28;;;3.88;;
7051;SDS011;3567;52.444;13.556;2023-11-19T02:42:27;4.25;;;3.88;;
7051;SDS011;3567;52.444;13.556;2023-11-19T02:44:53;7.00;;;4.40;;
7051;SDS011;3567;52.444;13.556;2023-11-19T02:47:18;4.30;;;3.80;;
7051;SDS011;3567;52.444;13.556;2023-11-19T02:49:46;4.22;;;3.83;;
7051;SDS011;3567;52.444;13.556;2023-11-19T02:52:12;4.65;;;3.67;;
7051;SDS011;3567;52.444;13.556;2023-11-19T02:54:39;4.63;;;3.85;;
7051;SDS011;3567;52.444;13.556;2023-11-19T02:57:06;4.50;;;3.78;;
7051;SDS011;3567;52.444;13.556;2023-11-19T02:59:33;3.83;;;3.50;;
7051;SDS011;3567;52.444;13.556;2023-11-19T03:02:04;4.47;;;3.97;;
7051;SDS011;3567;52.444;13.556;2023-11-19T03:04:32;3.70;;;3.40;;
7051;SDS011;3567;52.444;13.556;2023-11-19T03:06:58;4.22;;;3.88;;
7051;SDS011;3567;52.444;13.556;2023-11-19T03:09:23;3.80;;;3.50;;
7051;SDS011;3567;52.444;13.556;2023-11-19T03:11:49;3.78;;;3.47;;
7051;SDS011;3567;52.444;13.556;2023-11-19T03:14:15;4.78;;;4.00;;
7051;SDS011;3567;52.444;13.556;2023-11-19T03:16:40;5.63;;;3.83;;
7051;SDS011;3567;52.444;13.556;2023-11-19T03:19:05;4.05;;;3.35;;
7051;SDS011;3567;52.444;13.556;2023-11-19T03:21:31;3.38;;;3.17;;
7051;SDS011;3567;52.444;13.556;2023-11-19T03:23:57;4.07;;;3.67;;
7051;SDS011;3567;52.444;13.556;2023-11-19T03:26:25;7.30;;;3.67;;
7051;SDS011;3567;52.444;13.556;2023-11-19T03:28:51;3.95;;;3.35;;
7051;SDS011;3567;52.444;13.556;2023-11-19T03:31:17;3.80;;;3.50;;
7051;SDS011;3567;52.444;13.556;2023-11-19T03:33:42;4.97;;;3.78;;
7051;SDS011;3567;52.444;13.556;2023-11-19T03:36:07;4.40;;;4.00;;
7051;SDS011;3567;52.444;13.556;2023-11-19T03:38:34;3.83;;;3.45;;
7051;SDS011;3567;52.444;13.556;2023-11-19T03:40:59;4.28;;;3.92;;
7051;SDS011;3567;52.444;13.556;2023-11-19T03:43:25;5.75;;;3.90;;
7051;SDS011;3567;52.444;13.556;2023-11-19T03:45:50;4.55;;;4.15;;
7051;SDS011;3567;52.444;13.556;2023-11-19T03:48:15;4.25;;;3.85;;
7051;SDS011;3567;52.444;13.556;2023-11-19T03:50:41;6.88;;;4.32;;
7051;SDS011;3567;52.444;13.556;2023-11-19T03:53:07;8.00;;;4.45;;
7051;SDS011;3567;52.444;13.556;2023-11-19T03:55:32;4.60;;;4.10;;
7051;SDS011;3567;52.444;13.556;2023-11-19T03:57:57;4.93;;;4.43;;
7051;SDS011;3567;52.444;13.556;2023-11-19T04:00:23;9.45;;;4.88;;
7051;SDS011;3567;52.444;13.556;2023-11-19T04:02:48;5.55;;;5.05;;
7051;SDS011;3567;52.444;13.556;2023-11-19T04:05:14;6.00;;;5.47;;
7051;SDS011;3567;52.444;13.556;2023-11-19T04:07:39;7.85;;;5.38;;
7051;SDS011;3567;52.444;13.556;2023-11-19T04:10:05;9.45;;;5.60;;
7051;SDS011;3567;52.444;13.556;2023-11-19T04:12:30;5.82;;;5.28;;
7051;SDS011;3567;52.444;13.556;2023-11-19T04:14:56;6.53;;;5.50;;
7051;SDS011;3567;52.444;13.556;2023-11-19T04:17:21;10.23;;;6.25;;
7051;SDS011;3567;52.444;13.556;2023-11-19T04:19:47;8.30;;;5.88;;
7051;SDS011;3567;52.444;13.556;2023-11-19T04:22:13;10.57;;;6.28;;
7051;SDS011;3567;52.444;13.556;2023-11-19T04:24:38;7.20;;;6.50;;
7051;SDS011;3567;52.444;13.556;2023-11-19T04:27:05;8.35;;;6.47;;
7051;SDS011;3567;52.444;13.556;2023-11-19T04:29:31;8.27;;;6.30;;
7051;SDS011;3567;52.444;13.556;2023-11-19T04:31:57;6.53;;;5.85;;
7051;SDS011;3567;52.444;13.556;2023-11-19T04:34:22;8.40;;;6.40;;
7051;SDS011;3567;52.444;13.556;2023-11-19T04:36:48;10.80;;;7.32;;
7051;SDS011;3567;52.444;13.556;2023-11-19T04:39:14;9.48;;;7.55;;
7051;SDS011;3567;52.444;13.556;2023-11-19T04:41:50;29.50;;;17.60;;
7051;SDS011;3567;52.444;13.556;2023-11-19T04:44:19;9.20;;;7.28;;
7051;SDS011;3567;52.444;13.556;2023-11-19T04:46:44;8.90;;;7.47;;
7051;SDS011;3567;52.444;13.556;2023-11-19T04:49:10;9.93;;;6.95;;
7051;SDS011;3567;52.444;13.556;2023-11-19T04:51:43;10.77;;;7.55;;
7051;SDS011;3567;52.444;13.556;2023-11-19T04:54:12;9.75;;;7.28;;
7051;SDS011;3567;52.444;13.556;2023-11-19T04:56:37;13.35;;;8.65;;
7051;SDS011;3567;52.444;13.556;2023-11-19T04:59:03;10.48;;;8.13;;
7051;SDS011;3567;52.444;13.556;2023-11-19T05:01:30;9.65;;;8.15;;
7051;SDS011;3567;52.444;13.556;2023-11-19T05:03:58;11.10;;;8.35;;
7051;SDS011;3567;52.444;13.556;2023-11-19T05:06:27;10.02;;;7.85;;
7051;SDS011;3567;52.444;13.556;2023-11-19T05:08:59;11.65;;;8.73;;
7051;SDS011;3567;52.444;13.556;2023-11-19T05:11:34;10.18;;;8.40;;
7051;SDS011;3567;52.444;13.556;2023-11-19T05:14:01;22.15;;;14.27;;
7051;SDS011;3567;52.444;13.556;2023-11-19T05:16:29;11.10;;;8.27;;
7051;SDS011;3567;52.444;13.556;2023-11-19T05:18:54;12.70;;;9.45;;
7051;SDS011;3567;52.444;13.556;2023-11-19T05:21:19;14.20;;;8.88;;
7051;SDS011;3567;52.444;13.556;2023-11-19T05:23:45;14.90;;;9.05;;
7051;SDS011;3567;52.444;13.556;2023-11-19T05:26:21;11.82;;;8.88;;
7051;SDS011;3567;52.444;13.556;2023-11-19T05:28:47;13.45;;;9.90;;
7051;SDS011;3567;52.444;13.556;2023-11-19T05:31:13;65.82;;;14.48;;
7051;SDS011;3567;52.444;13.556;2023-11-19T05:33:38;17.77;;;11.23;;
7051;SDS011;3567;52.444;13.556;2023-11-19T05:36:04;18.90;;;11.27;;
7051;SDS011;3567;52.444;13.556;2023-11-19T05:38:30;21.40;;;11.70;;
7051;SDS011;3567;52.444;13.556;2023-11-19T05:40:55;24.90;;;12.30;;
7051;SDS011;3567;52.444;13.556;2023-11-19T05:43:21;21.00;;;12.13;;
7051;SDS011;3567;52.444;13.556;2023-11-19T05:45:47;23.02;;;13.00;;
7051;SDS011;3567;52.444;13.556;2023-11-19T05:48:12;28.30;;;13.35;;
7051;SDS011;3567;52.444;13.556;2023-11-19T05:50:38;21.75;;;12.98;;
7051;SDS011;3567;52.444;13.556;2023-11-19T05:53:03;30.13;;;15.00;;
7051;SDS011;3567;52.444;13.556;2023-11-19T05:55:33;21.55;;;12.45;;
7051;SDS011;3567;52.444;13.556;2023-11-19T05:57:59;21.13;;;11.70;;
7051;SDS011;3567;52.444;13.556;2023-11-19T06:00:24;32.08;;;12.52;;
7051;SDS011;3567;52.444;13.556;2023-11-19T06:02:51;21.95;;;12.48;;
7051;SDS011;3567;52.444;13.556;2023-11-19T06:05:17;18.45;;;11.02;;
7051;SDS011;3567;52.444;13.556;2023-11-19T06:07:43;21.92;;;11.50;;
7051;SDS011;3567;52.444;13.556;2023-11-19T06:10:08;23.33;;;12.73;;
7051;SDS011;3567;52.444;13.556;2023-11-19T06:12:35;26.23;;;12.60;;
7051;SDS011;3567;52.444;13.556;2023-11-19T06:15:03;23.02;;;14.05;;
7051;SDS011;3567;52.444;13.556;2023-11-19T06:17:33;21.80;;;12.05;;
7051;SDS011;3567;52.444;13.556;2023-11-19T06:19:59;22.58;;;12.93;;
7051;SDS011;3567;52.444;13.556;2023-11-19T06:22:24;23.88;;;12.75;;
7051;SDS011;3567;52.444;13.556;2023-11-19T06:24:49;22.35;;;12.50;;
7051;SDS011;3567;52.444;13.556;2023-11-19T06:27:15;19.77;;;11.98;;
7051;SDS011;3567;52.444;13.556;2023-11-19T06:29:40;21.65;;;13.05;;
7051;SDS011;3567;52.444;13.556;2023-11-19T06:32:06;25.75;;;13.52;;
7051;SDS011;3567;52.444;13.556;2023-11-19T06:34:33;23.85;;;12.05;;
7051;SDS011;3567;52.444;13.556;2023-11-19T06:36:58;22.85;;;11.77;;
7051;SDS011;3567;52.444;13.556;2023-11-19T06:39:24;22.92;;;12.63;;
7051;SDS011;3567;52.444;13.556;2023-11-19T06:41:49;23.17;;;13.32;;
7051;SDS011;3567;52.444;13.556;2023-11-19T06:44:15;18.45;;;11.52;;
7051;SDS011;3567;52.444;13.556;2023-11-19T06:46:41;27.20;;;12.90;;
7051;SDS011;3567;52.444;13.556;2023-11-19T06:49:06;23.35;;;11.68;;
7051;SDS011;3567;52.444;13.556;2023-11-19T06:51:33;20.60;;;11.70;;
7051;SDS011;3567;52.444;13.556;2023-11-19T06:53:59;25.67;;;11.60;;
7051;SDS011;3567;52.444;13.556;2023-11-19T06:56:24;22.52;;;12.20;;
7051;SDS011;3567;52.444;13.556;2023-11-19T06:58:50;21.40;;;12.75;;
7051;SDS011;3567;52.444;13.556;2023-11-19T07:01:17;21.33;;;11.65;;
7051;SDS011;3567;52.444;13.556;2023-11-19T07:03:46;23.15;;;12.10;;
7051;SDS011;3567;52.444;13.556;2023-11-19T07:06:12;20.95;;;11.23;;
7051;SDS011;3567;52.444;13.556;2023-11-19T07:08:38;21.92;;;11.57;;
7051;SDS011;3567;52.444;13.556;2023-11-19T07:11:04;19.55;;;11.38;;
7051;SDS011;3567;52.444;13.556;2023-11-19T07:13:29;20.63;;;11.00;;
7051;SDS011;3567;52.444;13.556;2023-11-19T07:15:55;19.90;;;10.18;;
7051;SDS011;3567;52.444;13.556;2023-11-19T07:18:21;20.50;;;10.40;;
7051;SDS011;3567;52.444;13.556;2023-11-19T07:20:47;20.52;;;10.50;;
7051;SDS011;3567;52.444;13.556;2023-11-19T07:23:13;19.52;;;10.73;;
7051;SDS011;3567;52.444;13.556;2023-11-19T07:25:39;19.08;;;11.02;;
7051;SDS011;3567;52.444;13.556;2023-11-19T07:28:05;29.35;;;14.13;;
7051;SDS011;3567;52.444;13.556;2023-11-19T07:30:30;25.25;;;12.05;;
7051;SDS011;3567;52.444;13.556;2023-11-19T07:32:55;20.95;;;10.75;;
7051;SDS011;3567;52.444;13.556;2023-11-19T07:35:20;24.17;;;11.25;;
7051;SDS011;3567;52.444;13.556;2023-11-19T07:37:46;17.58;;;9.82;;
7051;SDS011;3567;52.444;13.556;2023-11-19T07:40:12;19.92;;;10.60;;
7051;SDS011;3567;52.444;13.556;2023-11-19T07:42:38;20.92;;;11.68;;
7051;SDS011;3567;52.444;13.556;2023-11-19T07:45:03;30.77;;;11.55;;
7051;SDS011;3567;52.444;13.556;2023-11-19T07:47:30;17.50;;;10.15;;
7051;SDS011;3567;52.444;13.556;2023-11-19T07:49:56;19.88;;;10.95;;
7051;SDS011;3567;52.444;13.556;2023-11-19T07:52:21;21.98;;;12.10;;
7051;SDS011;3567;52.444;13.556;2023-11-19T07:54:46;19.98;;;10.38;;
7051;SDS011;3567;52.444;13.556;2023-11-19T07:57:11;23.27;;;14.23;;
7051;SDS011;3567;52.444;13.556;2023-11-19T07:59:37;23.52;;;10.82;;
7051;SDS011;3567;52.444;13.556;2023-11-19T08:02:02;18.75;;;10.40;;
7051;SDS011;3567;52.444;13.556;2023-11-19T08:04:28;20.85;;;11.23;;
7051;SDS011;3567;52.444;13.556;2023-11-19T08:06:54;19.90;;;10.55;;
7051;SDS011;3567;52.444;13.556;2023-11-19T08:09:19;19.48;;;10.38;;
7051;SDS011;3567;52.444;13.556;2023-11-19T08:11:44;18.58;;;11.30;;
7051;SDS011;3567;52.444;13.556;2023-11-19T08:14:10;17.73;;;9.95;;
7051;SDS011;3567;52.444;13.556;2023-11-19T08:16:36;17.40;;;9.73;;
7051;SDS011;3567;52.444;13.556;2023-11-19T08:19:03;19.58;;;10.70;;
7051;SDS011;3567;52.444;13.556;2023-11-19T08:21:29;17.83;;;10.95;;
7051;SDS011;3567;52.444;13.556;2023-11-19T08:23:54;18.95;;;9.85;;
7051;SDS011;3567;52.444;13.556;2023-11-19T08:26:19;21.88;;;10.70;;
7051;SDS011;3567;52.444;13.556;2023-11-19T08:28:44;20.15;;;10.00;;
7051;SDS011;3567;52.444;13.556;2023-11-19T08:31:10;22.95;;;10.45;;
7051;SDS011;3567;52.444;13.556;2023-11-19T08:33:35;17.55;;;10.63;;
7051;SDS011;3567;52.444;13.556;2023-11-19T08:36:01;25.90;;;10.80;;
7051;SDS011;3567;52.444;13.556;2023-11-19T08:38:26;24.52;;;15.07;;
7051;SDS011;3567;52.444;13.556;2023-11-19T08:40:52;19.05;;;11.38;;
7051;SDS011;3567;52.444;13.556;2023-11-19T08:43:17;24.88;;;12.00;;
7051;SDS011;3567;52.444;13.556;2023-11-19T08:45:42;20.40;;;12.25;;
7051;SDS011;3567;52.444;13.556;2023-11-19T08:48:08;20.83;;;11.73;;
7051;SDS011;3567;52.444;13.556;2023-11-19T08:50:34;22.42;;;12.35;;
7051;SDS011;3567;52.444;13.556;2023-11-19T08:52:59;26.00;;;12.30;;
7051;SDS011;3567;52.444;13.556;2023-11-19T08:55:25;26.20;;;13.90;;
7051;SDS011;3567;52.444;13.556;2023-11-19T08:57:51;28.40;;;16.15;;
7051;SDS011;3567;52.444;13.556;2023-11-19T09:00:16;22.83;;;12.90;;
7051;SDS011;3567;52.444;13.556;2023-11-19T09:02:43;23.52;;;12.43;;
7051;SDS011;3567;52.444;13.556;2023-11-19T09:05:08;26.27;;;13.02;;
7051;SDS011;3567;52.444;13.556;2023-11-19T09:07:33;28.95;;;16.95;;
7051;SDS011;3567;52.444;13.556;2023-11-19T09:09:59;39.97;;;17.40;;
7051;SDS011;3567;52.444;13.556;2023-11-19T09:12:24;33.35;;;15.73;;
7051;SDS011;3567;52.444;13.556;2023-11-19T09:14:49;29.15;;;12.77;;
7051;SDS011;3567;52.444;13.556;2023-11-19T09:17:15;40.47;;;17.35;;
7051;SDS011;3567;52.444;13.556;2023-11-19T09:19:40;25.55;;;13.57;;
7051;SDS011;3567;52.444;13.556;2023-11-19T09:22:06;25.20;;;12.60;;
7051;SDS011;3567;52.444;13.556;2023-11-19T09:24:32;25.05;;;13.55;;
7051;SDS011;3567;52.444;13.556;2023-11-19T09:26:57;29.30;;;16.30;;
7051;SDS011;3567;52.444;13.556;2023-11-19T09:29:22;39.50;;;16.23;;
7051;SDS011;3567;52.444;13.556;2023-11-19T09:31:48;24.35;;;12.82;;
7051;SDS011;3567;52.444;13.556;2023-11-19T09:34:14;28.77;;;13.88;;
7051;SDS011;3567;52.444;13.556;2023-11-19T09:36:39;23.65;;;14.75;;
7051;SDS011;3567;52.444;13.556;2023-11-19T09:39:08;28.02;;;13.55;;
7051;SDS011;3567;52.444;13.556;2023-11-19T09:41:34;23.33;;;13.77;;
7051;SDS011;3567;52.444;13.556;2023-11-19T09:44:00;21.00;;;11.95;;
7051;SDS011;3567;52.444;13.556;2023-11-19T09:46:25;18.33;;;10.75;;
7051;SDS011;3567;52.444;13.556;2023-11-19T09:48:54;18.33;;;11.05;;
7051;SDS011;3567;52.444;13.556;2023-11-19T09:51:21;19.20;;;11.68;;
7051;SDS011;3567;52.444;13.556;2023-11-19T09:53:49;21.77;;;10.77;;
7051;SDS011;3567;52.444;13.556;2023-11-19T09:56:15;19.52;;;11.40;;
7051;SDS011;3567;52.444;13.556;2023-11-19T09:58:42;18.15;;;11.15;;
7051;SDS011;3567;52.444;13.556;2023-11-19T10:01:07;27.08;;;11.40;;
7051;SDS011;3567;52.444;13.556;2023-11-19T10:03:36;18.20;;;10.38;;
7051;SDS011;3567;52.444;13.556;2023-11-19T10:06:07;13.80;;;8.07;;
7051;SDS011;3567;52.444;13.556;2023-11-19T10:08:34;13.02;;;8.13;;
7051;SDS011;3567;52.444;13.556;2023-11-19T10:11:04;13.00;;;7.32;;
7051;SDS011;3567;52.444;13.556;2023-11-19T10:13:30;13.23;;;6.90;;
7051;SDS011;3567;52.444;13.556;2023-11-19T10:15:55;17.58;;;6.20;;
7051;SDS011;3567;52.444;13.556;2023-11-19T10:18:25;14.73;;;5.95;;
7051;SDS011;3567;52.444;13.556;2023-11-19T10:20:51;11.80;;;5.10;;
7051;SDS011;3567;52.444;13.556;2023-11-19T10:23:17;15.02;;;8.30;;
7051;SDS011;3567;52.444;13.556;2023-11-19T10:25:42;18.38;;;11.07;;
7051;SDS011;3567;52.444;13.556;2023-11-19T10:28:07;19.13;;;9.85;;
7051;SDS011;3567;52.444;13.556;2023-11-19T10:30:33;14.15;;;7.40;;
7051;SDS011;3567;52.444;13.556;2023-11-19T10:33:12;10.90;;;6.05;;
7051;SDS011;3567;52.444;13.556;2023-11-19T10:35:55;7.22;;;4.30;;
7051;SDS011;3567;52.444;13.556;2023-11-19T10:38:27;11.50;;;4.70;;
7051;SDS011;3567;52.444;13.556;2023-11-19T10:40:52;11.10;;;4.85;;
7051;SDS011;3567;52.444;13.556;2023-11-19T10:43:19;11.68;;;4.30;;
7051;SDS011;3567;52.444;13.556;2023-11-19T10:45:48;15.77;;;4.45;;
7051;SDS011;3567;52.444;13.556;2023-11-19T10:48:14;11.48;;;3.65;;
7051;SDS011;3567;52.444;13.556;2023-11-19T10:50:40;8.30;;;3.40;;
7051;SDS011;3567;52.444;13.556;2023-11-19T10:53:08;10.93;;;4.47;;
7051;SDS011;3567;52.444;13.556;2023-11-19T10:55:36;5.13;;;3.22;;
7051;SDS011;3567;52.444;13.556;2023-11-19T10:58:07;14.48;;;3.28;;
7051;SDS011;3567;52.444;13.556;2023-11-19T11:03:08;9.05;;;3.42;;
7051;SDS011;3567;52.444;13.556;2023-11-19T11:05:46;18.65;;;3.55;;
7051;SDS011;3567;52.444;13.556;2023-11-19T11:08:12;13.70;;;3.90;;
7051;SDS011;3567;52.444;13.556;2023-11-19T11:10:52;10.48;;;3.40;;
7051;SDS011;3567;52.444;13.556;2023-11-19T11:13:19;8.80;;;2.83;;
7051;SDS011;3567;52.444;13.556;2023-11-19T11:15:45;7.03;;;3.30;;
7051;SDS011;3567;52.444;13.556;2023-11-19T11:18:12;13.02;;;3.60;;
7051;SDS011;3567;52.444;13.556;2023-11-19T11:20:38;8.90;;;4.13;;
7051;SDS011;3567;52.444;13.556;2023-11-19T11:28:39;17.05;;;3.92;;
7051;SDS011;3567;52.444;13.556;2023-11-19T11:40:02;14.77;;;4.03;;
7051;SDS011;3567;52.444;13.556;2023-11-19T11:42:35;20.58;;;4.35;;
7051;SDS011;3567;52.444;13.556;2023-11-19T11:55:28;16.85;;;5.90;;
7051;SDS011;3567;52.444;13.556;2023-11-19T11:57:54;17.92;;;5.60;;
7051;SDS011;3567;52.444;13.556;2023-11-19T12:02:51;19.42;;;5.72;;
7051;SDS011;3567;52.444;13.556;2023-11-19T12:05:17;17.73;;;4.57;;
7051;SDS011;3567;52.444;13.556;2023-11-19T12:07:45;18.42;;;5.30;;
7051;SDS011;3567;52.444;13.556;2023-11-19T12:10:26;25.52;;;5.45;;
7051;SDS011;3567;52.444;13.556;2023-11-19T12:12:56;22.65;;;5.30;;
7051;SDS011;3567;52.444;13.556;2023-11-19T12:15:23;19.30;;;5.57;;
7051;SDS011;3567;52.444;13.556;2023-11-19T12:17:50;15.55;;;4.80;;
7051;SDS011;3567;52.444;13.556;2023-11-19T12:20:17;18.05;;;5.35;;
7051;SDS011;3567;52.444;13.556;2023-11-19T12:22:44;24.95;;;4.47;;
7051;SDS011;3567;52.444;13.556;2023-11-19T12:25:11;17.08;;;4.68;;
7051;SDS011;3567;52.444;13.556;2023-11-19T12:27:41;15.00;;;5.15;;
7051;SDS011;3567;52.444;13.556;2023-11-19T12:30:22;26.60;;;4.70;;
7051;SDS011;3567;52.444;13.556;2023-11-19T12:32:51;21.90;;;4.32;;
7051;SDS011;3567;52.444;13.556;2023-11-19T12:35:21;22.05;;;4.60;;
7051;SDS011;3567;52.444;13.556;2023-11-19T12:37:48;16.85;;;4.63;;
7051;SDS011;3567;52.444;13.556;2023-11-19T12:40:18;24.13;;;5.97;;
7051;SDS011;3567;52.444;13.556;2023-11-19T12:42:48;24.08;;;5.07;;
7051;SDS011;3567;52.444;13.556;2023-11-19T12:45:14;18.73;;;4.38;;
7051;SDS011;3567;52.444;13.556;2023-11-19T12:47:41;26.55;;;5.80;;
7051;SDS011;3567;52.444;13.556;2023-11-19T12:50:08;20.98;;;5.18;;
7051;SDS011;3567;52.444;13.556;2023-11-19T12:52:37;17.27;;;5.03;;
7051;SDS011;3567;52.444;13.556;2023-11-19T12:55:25;24.65;;;5.47;;
7051;SDS011;3567;52.444;13.556;2023-11-19T12:57:51;19.88;;;5.25;;
7051;SDS011;3567;52.444;13.556;2023-11-19T13:00:20;29.33;;;6.07;;
7051;SDS011;3567;52.444;13.556;2023-11-19T13:05:23;18.73;;;4.88;;
7051;SDS011;3567;52.444;13.556;2023-11-19T13:07:48;31.15;;;5.60;;
7051;SDS011;3567;52.444;13.556;2023-11-19T13:10:13;25.98;;;5.97;;
7051;SDS011;3567;52.444;13.556;2023-11-19T13:12:39;26.63;;;5.70;;
7051;SDS011;3567;52.444;13.556;2023-11-19T13:15:04;16.25;;;5.50;;
7051;SDS011;3567;52.444;13.556;2023-11-19T13:17:30;27.88;;;5.68;;
7051;SDS011;3567;52.444;13.556;2023-11-19T13:19:56;22.10;;;5.35;;
7051;SDS011;3567;52.444;13.556;2023-11-19T13:22:22;23.65;;;5.35;;
7051;SDS011;3567;52.444;13.556;2023-11-19T13:24:47;25.77;;;5.57;;
7051;SDS011;3567;52.444;13.556;2023-11-19T13:27:13;22.25;;;4.80;;
7051;SDS011;3567;52.444;13.556;2023-11-19T13:29:38;28.38;;;4.70;;
7051;SDS011;3567;52.444;13.556;2023-11-19T13:32:04;29.83;;;5.90;;
7051;SDS011;3567;52.444;13.556;2023-11-19T13:34:30;27.10;;;5.57;;
7051;SDS011;3567;52.444;13.556;2023-11-19T13:36:56;28.98;;;5.70;;
7051;SDS011;3567;52.444;13.556;2023-11-19T13:39:21;32.72;;;5.03;;
7051;SDS011;3567;52.444;13.556;2023-11-19T13:41:48;18.58;;;5.50;;
7051;SDS011;3567;52.444;13.556;2023-11-19T13:44:15;27.83;;;5.68;;
7051;SDS011;3567;52.444;13.556;2023-11-19T13:46:41;38.65;;;6.30;;
7051;SDS011;3567;52.444;13.556;2023-11-19T13:49:06;29.25;;;5.10;;
7051;SDS011;3567;52.444;13.556;2023-11-19T13:51:32;28.23;;;5.97;;
7051;SDS011;3567;52.444;13.556;2023-11-19T13:53:57;43.55;;;6.65;;
7051;SDS011;3567;52.444;13.556;2023-11-19T13:56:23;36.30;;;6.60;;
7051;SDS011;3567;52.444;13.556;2023-11-19T13:58:48;28.58;;;6.45;;
7051;SDS011;3567;52.444;13.556;2023-11-19T14:01:14;27.05;;;5.97;;
7051;SDS011;3567;52.444;13.556;2023-11-19T14:03:39;35.95;;;7.22;;
7051;SDS011;3567;52.444;13.556;2023-11-19T14:06:05;32.05;;;7.07;;
7051;SDS011;3567;52.444;13.556;2023-11-19T14:08:33;25.70;;;6.68;;
7051;SDS011;3567;52.444;13.556;2023-11-19T14:10:58;34.95;;;7.35;;
7051;SDS011;3567;52.444;13.556;2023-11-19T14:13:24;24.13;;;6.75;;
7051;SDS011;3567;52.444;13.556;2023-11-19T14:15:49;25.83;;;6.57;;
7051;SDS011;3567;52.444;13.556;2023-11-19T14:18:15;29.75;;;6.90;;
7051;SDS011;3567;52.444;13.556;2023-11-19T14:20:42;23.58;;;6.30;;
7051;SDS011;3567;52.444;13.556;2023-11-19T14:23:09;32.47;;;7.25;;
7051;SDS011;3567;52.444;13.556;2023-11-19T14:25:34;22.08;;;6.57;;
7051;SDS011;3567;52.444;13.556;2023-11-19T14:27:59;25.58;;;6.82;;
7051;SDS011;3567;52.444;13.556;2023-11-19T14:30:25;27.08;;;6.40;;
7051;SDS011;3567;52.444;13.556;2023-11-19T14:32:50;35.17;;;7.28;;
7051;SDS011;3567;52.444;13.556;2023-11-19T14:35:15;31.38;;;6.47;;
7051;SDS011;3567;52.444;13.556;2023-11-19T14:37:41;31.15;;;5.50;;
7051;SDS011;3567;52.444;13.556;2023-11-19T14:40:06;38.83;;;6.50;;
7051;SDS011;3567;52.444;13.556;2023-11-19T14:42:34;29.58;;;5.68;;
7051;SDS011;3567;52.444;13.556;2023-11-19T14:45:00;28.60;;;4.93;;
7051;SDS011;3567;52.444;13.556;2023-11-19T14:47:25;33.72;;;6.90;;
7051;SDS011;3567;52.444;13.556;2023-11-19T14:49:51;27.27;;;7.30;;
7051;SDS011;3567;52.444;13.556;2023-11-19T14:52:16;29.55;;;6.22;;
7051;SDS011;3567;52.444;13.556;2023-11-19T14:54:42;33.15;;;5.30;;
7051;SDS011;3567;52.444;13.556;2023-11-19T14:57:07;34.28;;;5.20;;
7051;SDS011;3567;52.444;13.556;2023-11-19T14:59:36;26.35;;;5.25;;
7051;SDS011;3567;52.444;13.556;2023-11-19T15:02:03;37.67;;;6.05;;
7051;SDS011;3567;52.444;13.556;2023-11-19T15:04:29;24.85;;;5.22;;
7051;SDS011;3567;52.444;13.556;2023-11-19T15:06:56;28.77;;;5.57;;
7051;SDS011;3567;52.444;13.556;2023-11-19T15:09:22;28.85;;;4.47;;
7051;SDS011;3567;52.444;13.556;2023-11-19T15:11:47;30.15;;;5.88;;
7051;SDS011;3567;52.444;13.556;2023-11-19T15:14:13;21.45;;;4.05;;
7051;SDS011;3567;52.444;13.556;2023-11-19T15:16:44;26.58;;;5.55;;
7051;SDS011;3567;52.444;13.556;2023-11-19T15:19:10;26.02;;;4.57;;